sensor_id;sensor_type;location;lat;lon;timestamp;temperature;humidity
51011;DHT22;37038;50.182;8.624;2023-03-19T00:02:38;12.50;99.90
51011;DHT22;37038;50.182;8.624;2023-03-19T00:05:25;12.40;99.90
51011;DHT22;37038;50.182;8.624;2023-03-19T00:08:13;12.40;99.90
51011;DHT22;37038;50.182;8.624;2023-03-19T00:11:07;12.40;99.90
51011;DHT22;37038;50.182;8.624;2023-03-19T00:13:59;12.60;99.90
51011;DHT22;37038;50.182;8.624;2023-03-19T00:16:47;12.60;99.90
51011;DHT22;37038;50.182;8.624;2023-03-19T00:19:35;12.40;99.90
51011;DHT22;37038;50.182;8.624;2023-03-19T00:22:23;12.40;99.90
51011;DHT22;37038;50.182;8.624;2023-03-19T00:25:11;12.30;99.90
51011;DHT22;37038;50.182;8.624;2023-03-19T00:27:59;12.30;99.90
51011;DHT22;37038;50.182;8.624;2023-03-19T00:30:47;12.10;99.90
51011;DHT22;37038;50.182;8.624;2023-03-19T00:33:35;12.20;99.90
51011;DHT22;37038;50.182;8.624;2023-03-19T00:36:24;12.10;99.90
51011;DHT22;37038;50.182;8.624;2023-03-19T00:39:13;12.00;99.90
51011;DHT22;37038;50.182;8.624;2023-03-19T00:42:01;12.00;99.90
51011;DHT22;37038;50.182;8.624;2023-03-19T00:44:49;11.90;99.90
51011;DHT22;37038;50.182;8.624;2023-03-19T00:47:37;12.10;99.90
51011;DHT22;37038;50.182;8.624;2023-03-19T00:50:25;12.20;99.90
51011;DHT22;37038;50.182;8.624;2023-03-19T00:53:13;12.30;99.90
51011;DHT22;37038;50.182;8.624;2023-03-19T00:56:02;12.30;99.90
51011;DHT22;37038;50.182;8.624;2023-03-19T00:58:50;11.60;99.90
51011;DHT22;37038;50.182;8.624;2023-03-19T01:01:38;11.30;99.90
51011;DHT22;37038;50.182;8.624;2023-03-19T01:04:26;11.30;99.90
51011;DHT22;37038;50.182;8.624;2023-03-19T01:07:14;11.40;99.90
51011;DHT22;37038;50.182;8.624;2023-03-19T01:10:02;11.30;99.90
51011;DHT22;37038;50.182;8.624;2023-03-19T01:12:51;11.40;99.90
51011;DHT22;37038;50.182;8.624;2023-03-19T01:15:42;11.70;99.90
51011;DHT22;37038;50.182;8.624;2023-03-19T01:18:33;11.30;99.90
51011;DHT22;37038;50.182;8.624;2023-03-19T01:21:21;10.80;99.90
51011;DHT22;37038;50.182;8.624;2023-03-19T01:24:09;10.60;99.90
51011;DHT22;37038;50.182;8.624;2023-03-19T01:26:57;10.70;99.90
51011;DHT22;37038;50.182;8.624;2023-03-19T01:29:45;10.90;99.90
51011;DHT22;37038;50.182;8.624;2023-03-19T01:32:33;10.90;99.90
51011;DHT22;37038;50.182;8.624;2023-03-19T01:35:22;10.90;99.90
51011;DHT22;37038;50.182;8.624;2023-03-19T01:38:10;11.10;99.90
51011;DHT22;37038;50.182;8.624;2023-03-19T01:40:58;11.40;99.90
51011;DHT22;37038;50.182;8.624;2023-03-19T01:43:47;11.40;99.90
51011;DHT22;37038;50.182;8.624;2023-03-19T01:46:36;11.30;99.90
51011;DHT22;37038;50.182;8.624;2023-03-19T01:49:28;11.20;99.90
51011;DHT22;37038;50.182;8.624;2023-03-19T01:52:17;11.30;99.90
51011;DHT22;37038;50.182;8.624;2023-03-19T01:55:06;11.40;99.90
51011;DHT22;37038;50.182;8.624;2023-03-19T01:57:54;11.50;99.90
51011;DHT22;37038;50.182;8.624;2023-03-19T02:00:44;11.50;99.90
51011;DHT22;37038;50.182;8.624;2023-03-19T02:03:32;11.10;99.90
51011;DHT22;37038;50.182;8.624;2023-03-19T02:06:21;10.90;99.90
51011;DHT22;37038;50.182;8.624;2023-03-19T02:09:10;11.10;99.90
51011;DHT22;37038;50.182;8.624;2023-03-19T02:11:59;11.00;99.90
51011;DHT22;37038;50.182;8.624;2023-03-19T02:14:48;10.70;99.90
51011;DHT22;37038;50.182;8.624;2023-03-19T02:17:36;10.70;99.90
51011;DHT22;37038;50.182;8.624;2023-03-19T02:23:48;10.20;99.90
51011;DHT22;37038;50.182;8.624;2023-03-19T02:26:40;10.50;99.90
51011;DHT22;37038;50.182;8.624;2023-03-19T02:29:29;10.90;99.90
51011;DHT22;37038;50.182;8.624;2023-03-19T02:32:17;11.00;99.90
51011;DHT22;37038;50.182;8.624;2023-03-19T02:35:06;11.30;99.90
51011;DHT22;37038;50.182;8.624;2023-03-19T02:37:55;11.30;99.90
51011;DHT22;37038;50.182;8.624;2023-03-19T02:41:12;11.00;99.90
51011;DHT22;37038;50.182;8.624;2023-03-19T02:44:02;11.20;99.90
51011;DHT22;37038;50.182;8.624;2023-03-19T02:46:51;10.70;99.90
51011;DHT22;37038;50.182;8.624;2023-03-19T02:49:39;10.60;99.90
51011;DHT22;37038;50.182;8.624;2023-03-19T02:52:27;10.40;99.90
51011;DHT22;37038;50.182;8.624;2023-03-19T02:55:15;10.40;99.90
51011;DHT22;37038;50.182;8.624;2023-03-19T02:58:05;10.40;99.90
51011;DHT22;37038;50.182;8.624;2023-03-19T03:00:53;10.40;99.90
51011;DHT22;37038;50.182;8.624;2023-03-19T03:03:41;10.40;99.90
51011;DHT22;37038;50.182;8.624;2023-03-19T03:06:29;10.50;99.90
51011;DHT22;37038;50.182;8.624;2023-03-19T03:09:17;10.70;99.90
51011;DHT22;37038;50.182;8.624;2023-03-19T03:12:05;10.80;99.90
51011;DHT22;37038;50.182;8.624;2023-03-19T03:14:53;10.90;99.90
51011;DHT22;37038;50.182;8.624;2023-03-19T03:17:43;10.60;99.90
51011;DHT22;37038;50.182;8.624;2023-03-19T03:20:34;10.10;99.90
51011;DHT22;37038;50.182;8.624;2023-03-19T03:23:30;9.80;99.90
51011;DHT22;37038;50.182;8.624;2023-03-19T03:26:18;9.60;99.90
51011;DHT22;37038;50.182;8.624;2023-03-19T03:29:07;9.60;99.90
51011;DHT22;37038;50.182;8.624;2023-03-19T03:31:57;9.80;99.90
51011;DHT22;37038;50.182;8.624;2023-03-19T03:34:48;9.70;99.90
51011;DHT22;37038;50.182;8.624;2023-03-19T03:37:37;9.70;99.90
51011;DHT22;37038;50.182;8.624;2023-03-19T03:40:24;9.60;99.90
51011;DHT22;37038;50.182;8.624;2023-03-19T03:43:13;9.60;99.90
51011;DHT22;37038;50.182;8.624;2023-03-19T03:46:02;9.60;99.90
51011;DHT22;37038;50.182;8.624;2023-03-19T03:48:52;9.50;99.90
51011;DHT22;37038;50.182;8.624;2023-03-19T03:51:42;9.60;99.90
51011;DHT22;37038;50.182;8.624;2023-03-19T03:54:29;9.90;99.90
51011;DHT22;37038;50.182;8.624;2023-03-19T03:57:17;10.10;99.90
51011;DHT22;37038;50.182;8.624;2023-03-19T04:00:06;10.20;99.90
51011;DHT22;37038;50.182;8.624;2023-03-19T04:02:54;10.20;99.90
51011;DHT22;37038;50.182;8.624;2023-03-19T04:05:43;10.50;99.90
51011;DHT22;37038;50.182;8.624;2023-03-19T04:08:31;10.30;99.90
51011;DHT22;37038;50.182;8.624;2023-03-19T04:11:19;9.90;99.90
51011;DHT22;37038;50.182;8.624;2023-03-19T04:14:07;9.50;99.90
51011;DHT22;37038;50.182;8.624;2023-03-19T04:16:56;9.50;99.90
51011;DHT22;37038;50.182;8.624;2023-03-19T04:19:44;9.50;99.90
51011;DHT22;37038;50.182;8.624;2023-03-19T04:22:32;9.30;99.90
51011;DHT22;37038;50.182;8.624;2023-03-19T04:25:20;9.20;99.90
51011;DHT22;37038;50.182;8.624;2023-03-19T04:28:08;9.20;99.90
51011;DHT22;37038;50.182;8.624;2023-03-19T04:31:04;9.10;99.90
51011;DHT22;37038;50.182;8.624;2023-03-19T04:33:53;9.10;99.90
51011;DHT22;37038;50.182;8.624;2023-03-19T04:36:41;9.00;99.90
51011;DHT22;37038;50.182;8.624;2023-03-19T04:39:29;8.90;99.90
51011;DHT22;37038;50.182;8.624;2023-03-19T04:42:18;8.90;99.90
51011;DHT22;37038;50.182;8.624;2023-03-19T04:45:07;8.90;99.90
51011;DHT22;37038;50.182;8.624;2023-03-19T04:47:55;8.90;99.90
51011;DHT22;37038;50.182;8.624;2023-03-19T04:50:44;8.90;99.90
51011;DHT22;37038;50.182;8.624;2023-03-19T04:53:34;8.90;99.90
51011;DHT22;37038;50.182;8.624;2023-03-19T04:56:23;8.90;99.90
51011;DHT22;37038;50.182;8.624;2023-03-19T04:59:11;8.90;99.90
51011;DHT22;37038;50.182;8.624;2023-03-19T05:01:58;8.90;99.90
51011;DHT22;37038;50.182;8.624;2023-03-19T05:04:47;8.70;99.90
51011;DHT22;37038;50.182;8.624;2023-03-19T05:07:36;8.60;99.90
51011;DHT22;37038;50.182;8.624;2023-03-19T05:10:24;8.60;99.90
51011;DHT22;37038;50.182;8.624;2023-03-19T05:13:12;8.60;99.90
51011;DHT22;37038;50.182;8.624;2023-03-19T05:16:00;8.70;99.90
51011;DHT22;37038;50.182;8.624;2023-03-19T05:18:48;8.70;99.90
51011;DHT22;37038;50.182;8.624;2023-03-19T05:21:37;8.70;99.90
51011;DHT22;37038;50.182;8.624;2023-03-19T05:24:25;8.60;99.90
51011;DHT22;37038;50.182;8.624;2023-03-19T05:27:13;8.60;99.90
51011;DHT22;37038;50.182;8.624;2023-03-19T05:30:02;8.60;99.90
51011;DHT22;37038;50.182;8.624;2023-03-19T05:32:50;8.60;99.90
51011;DHT22;37038;50.182;8.624;2023-03-19T05:35:41;8.60;99.90
51011;DHT22;37038;50.182;8.624;2023-03-19T05:38:30;8.70;99.90
51011;DHT22;37038;50.182;8.624;2023-03-19T05:41:17;8.60;99.90
51011;DHT22;37038;50.182;8.624;2023-03-19T05:44:05;8.60;99.90
51011;DHT22;37038;50.182;8.624;2023-03-19T05:46:53;8.60;99.90
51011;DHT22;37038;50.182;8.624;2023-03-19T05:49:42;8.60;99.90
51011;DHT22;37038;50.182;8.624;2023-03-19T05:52:30;8.60;99.90
51011;DHT22;37038;50.182;8.624;2023-03-19T05:55:18;8.60;99.90
51011;DHT22;37038;50.182;8.624;2023-03-19T05:58:06;8.50;99.90
51011;DHT22;37038;50.182;8.624;2023-03-19T06:00:54;8.60;99.90
51011;DHT22;37038;50.182;8.624;2023-03-19T06:03:43;8.60;99.90
51011;DHT22;37038;50.182;8.624;2023-03-19T06:06:31;8.60;99.90
51011;DHT22;37038;50.182;8.624;2023-03-19T06:09:19;8.60;99.90
51011;DHT22;37038;50.182;8.624;2023-03-19T06:12:07;8.70;99.90
51011;DHT22;37038;50.182;8.624;2023-03-19T06:14:55;8.70;99.90
51011;DHT22;37038;50.182;8.624;2023-03-19T06:17:43;8.70;99.90
51011;DHT22;37038;50.182;8.624;2023-03-19T06:20:31;8.70;99.90
51011;DHT22;37038;50.182;8.624;2023-03-19T06:23:20;8.80;99.90
51011;DHT22;37038;50.182;8.624;2023-03-19T06:26:07;8.90;99.90
51011;DHT22;37038;50.182;8.624;2023-03-19T06:28:55;9.00;99.90
51011;DHT22;37038;50.182;8.624;2023-03-19T06:31:43;9.10;99.90
51011;DHT22;37038;50.182;8.624;2023-03-19T06:34:32;9.10;99.90
51011;DHT22;37038;50.182;8.624;2023-03-19T06:37:20;9.10;99.90
51011;DHT22;37038;50.182;8.624;2023-03-19T06:40:09;9.00;99.90
51011;DHT22;37038;50.182;8.624;2023-03-19T06:42:57;9.00;99.90
51011;DHT22;37038;50.182;8.624;2023-03-19T06:45:45;9.00;99.90
51011;DHT22;37038;50.182;8.624;2023-03-19T06:48:34;9.20;99.90
51011;DHT22;37038;50.182;8.624;2023-03-19T06:51:23;9.20;99.90
51011;DHT22;37038;50.182;8.624;2023-03-19T06:54:14;9.30;99.90
51011;DHT22;37038;50.182;8.624;2023-03-19T06:57:02;9.40;99.90
51011;DHT22;37038;50.182;8.624;2023-03-19T06:59:50;9.50;99.90
51011;DHT22;37038;50.182;8.624;2023-03-19T07:02:39;9.40;99.90
51011;DHT22;37038;50.182;8.624;2023-03-19T07:05:27;9.70;99.90
51011;DHT22;37038;50.182;8.624;2023-03-19T07:08:15;9.70;99.90
51011;DHT22;37038;50.182;8.624;2023-03-19T07:11:07;10.10;99.90
51011;DHT22;37038;50.182;8.624;2023-03-19T07:13:55;10.60;99.90
51011;DHT22;37038;50.182;8.624;2023-03-19T07:16:43;10.70;99.90
51011;DHT22;37038;50.182;8.624;2023-03-19T07:19:31;10.30;99.90
51011;DHT22;37038;50.182;8.624;2023-03-19T07:22:19;10.40;99.90
51011;DHT22;37038;50.182;8.624;2023-03-19T07:25:07;10.50;99.90
51011;DHT22;37038;50.182;8.624;2023-03-19T07:27:55;11.10;99.90
51011;DHT22;37038;50.182;8.624;2023-03-19T07:30:43;11.20;99.90
51011;DHT22;37038;50.182;8.624;2023-03-19T07:33:31;11.40;99.90
51011;DHT22;37038;50.182;8.624;2023-03-19T07:36:22;12.20;99.90
51011;DHT22;37038;50.182;8.624;2023-03-19T07:39:10;13.00;99.90
51011;DHT22;37038;50.182;8.624;2023-03-19T07:41:58;12.80;99.90
51011;DHT22;37038;50.182;8.624;2023-03-19T07:44:46;12.80;99.90
51011;DHT22;37038;50.182;8.624;2023-03-19T07:47:36;12.40;99.90
51011;DHT22;37038;50.182;8.624;2023-03-19T07:50:23;11.70;99.90
51011;DHT22;37038;50.182;8.624;2023-03-19T07:53:11;11.80;99.90
51011;DHT22;37038;50.182;8.624;2023-03-19T07:56:02;11.30;99.90
51011;DHT22;37038;50.182;8.624;2023-03-19T07:58:50;11.30;99.90
51011;DHT22;37038;50.182;8.624;2023-03-19T08:01:39;11.10;99.90
51011;DHT22;37038;50.182;8.624;2023-03-19T08:04:27;10.90;99.90
51011;DHT22;37038;50.182;8.624;2023-03-19T08:07:15;10.80;99.90
51011;DHT22;37038;50.182;8.624;2023-03-19T08:10:04;10.80;99.90
51011;DHT22;37038;50.182;8.624;2023-03-19T08:12:53;11.00;99.90
51011;DHT22;37038;50.182;8.624;2023-03-19T08:15:41;11.40;99.90
51011;DHT22;37038;50.182;8.624;2023-03-19T08:18:30;11.30;99.90
51011;DHT22;37038;50.182;8.624;2023-03-19T08:21:18;11.10;99.90
51011;DHT22;37038;50.182;8.624;2023-03-19T08:24:06;11.10;99.90
51011;DHT22;37038;50.182;8.624;2023-03-19T08:26:54;11.30;99.90
51011;DHT22;37038;50.182;8.624;2023-03-19T08:29:42;11.70;99.90
51011;DHT22;37038;50.182;8.624;2023-03-19T08:32:30;12.10;99.90
51011;DHT22;37038;50.182;8.624;2023-03-19T08:35:19;12.50;99.90
51011;DHT22;37038;50.182;8.624;2023-03-19T08:38:07;12.90;99.90
51011;DHT22;37038;50.182;8.624;2023-03-19T08:40:55;12.50;99.90
51011;DHT22;37038;50.182;8.624;2023-03-19T08:43:50;13.50;99.90
51011;DHT22;37038;50.182;8.624;2023-03-19T08:46:39;13.60;99.90
51011;DHT22;37038;50.182;8.624;2023-03-19T08:49:27;13.50;99.90
51011;DHT22;37038;50.182;8.624;2023-03-19T08:52:15;14.20;99.90
51011;DHT22;37038;50.182;8.624;2023-03-19T08:55:04;15.50;99.90
51011;DHT22;37038;50.182;8.624;2023-03-19T08:57:52;16.10;99.90
51011;DHT22;37038;50.182;8.624;2023-03-19T09:00:40;15.80;99.90
51011;DHT22;37038;50.182;8.624;2023-03-19T09:03:28;15.90;99.90
51011;DHT22;37038;50.182;8.624;2023-03-19T09:06:16;15.60;99.90
51011;DHT22;37038;50.182;8.624;2023-03-19T09:09:04;16.40;99.90
51011;DHT22;37038;50.182;8.624;2023-03-19T09:11:52;15.20;99.90
51011;DHT22;37038;50.182;8.624;2023-03-19T09:14:41;15.90;99.90
51011;DHT22;37038;50.182;8.624;2023-03-19T09:17:29;17.40;99.90
51011;DHT22;37038;50.182;8.624;2023-03-19T09:20:18;16.40;99.90
51011;DHT22;37038;50.182;8.624;2023-03-19T09:23:05;17.30;99.90
51011;DHT22;37038;50.182;8.624;2023-03-19T09:25:54;17.90;99.90
51011;DHT22;37038;50.182;8.624;2023-03-19T09:28:42;17.80;99.90
51011;DHT22;37038;50.182;8.624;2023-03-19T09:31:32;17.30;99.90
51011;DHT22;37038;50.182;8.624;2023-03-19T09:34:20;17.30;99.90
51011;DHT22;37038;50.182;8.624;2023-03-19T09:37:09;17.20;99.90
51011;DHT22;37038;50.182;8.624;2023-03-19T09:39:58;17.10;99.90
51011;DHT22;37038;50.182;8.624;2023-03-19T09:46:02;19.00;98.60
51011;DHT22;37038;50.182;8.624;2023-03-19T09:49:09;19.20;95.80
51011;DHT22;37038;50.182;8.624;2023-03-19T09:52:34;16.80;99.00
51011;DHT22;37038;50.182;8.624;2023-03-19T09:58:31;18.20;96.40
51011;DHT22;37038;50.182;8.624;2023-03-19T10:01:24;16.20;99.40
51011;DHT22;37038;50.182;8.624;2023-03-19T10:04:43;15.50;99.90
51011;DHT22;37038;50.182;8.624;2023-03-19T10:17:28;14.90;99.90
51011;DHT22;37038;50.182;8.624;2023-03-19T10:23:38;15.80;99.90
51011;DHT22;37038;50.182;8.624;2023-03-19T10:26:40;15.80;99.90
51011;DHT22;37038;50.182;8.624;2023-03-19T10:29:29;15.70;99.90
51011;DHT22;37038;50.182;8.624;2023-03-19T10:32:20;15.90;99.90
51011;DHT22;37038;50.182;8.624;2023-03-19T10:35:26;15.90;99.90
51011;DHT22;37038;50.182;8.624;2023-03-19T10:38:28;15.70;99.90
51011;DHT22;37038;50.182;8.624;2023-03-19T10:41:32;15.60;99.90
51011;DHT22;37038;50.182;8.624;2023-03-19T10:44:30;15.40;99.90
51011;DHT22;37038;50.182;8.624;2023-03-19T10:47:26;15.60;99.90
51011;DHT22;37038;50.182;8.624;2023-03-19T10:50:17;15.90;99.90
51011;DHT22;37038;50.182;8.624;2023-03-19T10:53:28;15.60;99.90
51011;DHT22;37038;50.182;8.624;2023-03-19T10:56:22;15.70;99.90
51011;DHT22;37038;50.182;8.624;2023-03-19T10:59:24;15.60;99.90
51011;DHT22;37038;50.182;8.624;2023-03-19T11:02:18;15.40;99.90
51011;DHT22;37038;50.182;8.624;2023-03-19T11:08:18;14.90;99.90
51011;DHT22;37038;50.182;8.624;2023-03-19T11:11:33;14.90;99.90
51011;DHT22;37038;50.182;8.624;2023-03-19T11:14:38;15.20;99.90
51011;DHT22;37038;50.182;8.624;2023-03-19T11:17:47;14.90;99.90
51011;DHT22;37038;50.182;8.624;2023-03-19T11:20:37;14.40;99.90
51011;DHT22;37038;50.182;8.624;2023-03-19T11:23:38;14.40;99.90
51011;DHT22;37038;50.182;8.624;2023-03-19T11:26:28;14.40;99.90
51011;DHT22;37038;50.182;8.624;2023-03-19T11:29:17;14.40;99.90
51011;DHT22;37038;50.182;8.624;2023-03-19T11:32:27;14.60;99.90
51011;DHT22;37038;50.182;8.624;2023-03-19T11:35:37;14.60;99.90
51011;DHT22;37038;50.182;8.624;2023-03-19T11:52:39;14.90;99.90
51011;DHT22;37038;50.182;8.624;2023-03-19T12:02:49;15.70;99.90
51011;DHT22;37038;50.182;8.624;2023-03-19T12:06:17;15.80;99.90
51011;DHT22;37038;50.182;8.624;2023-03-19T12:09:24;16.20;99.90
51011;DHT22;37038;50.182;8.624;2023-03-19T12:16:14;17.20;99.90
51011;DHT22;37038;50.182;8.624;2023-03-19T12:22:52;15.30;99.90
51011;DHT22;37038;50.182;8.624;2023-03-19T12:26:04;15.60;99.90
51011;DHT22;37038;50.182;8.624;2023-03-19T12:29:06;15.20;99.90
51011;DHT22;37038;50.182;8.624;2023-03-19T12:32:32;15.20;99.90
51011;DHT22;37038;50.182;8.624;2023-03-19T12:35:33;15.80;99.90
51011;DHT22;37038;50.182;8.624;2023-03-19T12:41:23;16.80;99.90
51011;DHT22;37038;50.182;8.624;2023-03-19T12:44:18;15.90;99.90
51011;DHT22;37038;50.182;8.624;2023-03-19T12:47:37;16.60;99.90
51011;DHT22;37038;50.182;8.624;2023-03-19T12:50:25;17.50;99.90
51011;DHT22;37038;50.182;8.624;2023-03-19T12:53:44;16.40;99.90
51011;DHT22;37038;50.182;8.624;2023-03-19T12:57:11;16.30;99.90
51011;DHT22;37038;50.182;8.624;2023-03-19T13:00:37;15.60;99.90
51011;DHT22;37038;50.182;8.624;2023-03-19T13:07:10;16.50;99.90
51011;DHT22;37038;50.182;8.624;2023-03-19T13:10:13;16.60;99.90
51011;DHT22;37038;50.182;8.624;2023-03-19T13:14:05;16.60;99.90
51011;DHT22;37038;50.182;8.624;2023-03-19T13:16:42;15.90;99.90
51011;DHT22;37038;50.182;8.624;2023-03-19T13:19:48;15.00;99.90
51011;DHT22;37038;50.182;8.624;2023-03-19T13:22:45;15.00;99.90
51011;DHT22;37038;50.182;8.624;2023-03-19T13:25:43;14.70;99.90
51011;DHT22;37038;50.182;8.624;2023-03-19T13:28:36;14.60;99.90
51011;DHT22;37038;50.182;8.624;2023-03-19T13:31:26;14.10;99.90
51011;DHT22;37038;50.182;8.624;2023-03-19T13:37:26;13.50;99.90
51011;DHT22;37038;50.182;8.624;2023-03-19T13:40:49;13.50;99.90
51011;DHT22;37038;50.182;8.624;2023-03-19T13:43:41;13.60;99.90
51011;DHT22;37038;50.182;8.624;2023-03-19T13:46:40;13.90;99.90
51011;DHT22;37038;50.182;8.624;2023-03-19T13:49:37;13.70;99.90
51011;DHT22;37038;50.182;8.624;2023-03-19T13:53:22;13.70;99.90
51011;DHT22;37038;50.182;8.624;2023-03-19T13:56:26;13.70;99.90
51011;DHT22;37038;50.182;8.624;2023-03-19T13:59:31;13.60;99.90
51011;DHT22;37038;50.182;8.624;2023-03-19T14:05:16;13.50;99.90
51011;DHT22;37038;50.182;8.624;2023-03-19T14:08:17;13.50;99.90
51011;DHT22;37038;50.182;8.624;2023-03-19T14:11:07;13.70;99.90
51011;DHT22;37038;50.182;8.624;2023-03-19T14:14:05;13.80;99.90
51011;DHT22;37038;50.182;8.624;2023-03-19T14:16:54;13.60;99.90
51011;DHT22;37038;50.182;8.624;2023-03-19T14:19:42;13.70;99.90
51011;DHT22;37038;50.182;8.624;2023-03-19T14:26:20;14.00;99.90
51011;DHT22;37038;50.182;8.624;2023-03-19T14:29:16;13.90;99.90
51011;DHT22;37038;50.182;8.624;2023-03-19T14:32:10;13.90;99.90
51011;DHT22;37038;50.182;8.624;2023-03-19T14:35:04;14.00;99.90
51011;DHT22;37038;50.182;8.624;2023-03-19T14:37:54;14.00;99.90
51011;DHT22;37038;50.182;8.624;2023-03-19T14:40:44;14.40;99.90
51011;DHT22;37038;50.182;8.624;2023-03-19T14:47:07;14.80;99.90
51011;DHT22;37038;50.182;8.624;2023-03-19T14:53:42;14.50;99.90
51011;DHT22;37038;50.182;8.624;2023-03-19T14:56:41;14.10;99.90
51011;DHT22;37038;50.182;8.624;2023-03-19T14:59:36;14.20;99.90
51011;DHT22;37038;50.182;8.624;2023-03-19T15:02:40;14.20;99.90
51011;DHT22;37038;50.182;8.624;2023-03-19T15:05:32;14.10;99.90
51011;DHT22;37038;50.182;8.624;2023-03-19T15:08:23;14.10;99.90
51011;DHT22;37038;50.182;8.624;2023-03-19T15:17:24;14.40;99.90
51011;DHT22;37038;50.182;8.624;2023-03-19T15:20:19;14.40;99.90
51011;DHT22;37038;50.182;8.624;2023-03-19T15:23:10;14.30;99.90
51011;DHT22;37038;50.182;8.624;2023-03-19T15:26:14;14.40;99.90
51011;DHT22;37038;50.182;8.624;2023-03-19T15:29:04;15.00;99.90
51011;DHT22;37038;50.182;8.624;2023-03-19T15:31:58;15.60;99.90
51011;DHT22;37038;50.182;8.624;2023-03-19T15:34:55;15.70;99.90
51011;DHT22;37038;50.182;8.624;2023-03-19T15:37:48;15.60;99.90
51011;DHT22;37038;50.182;8.624;2023-03-19T15:40:40;16.50;99.90
51011;DHT22;37038;50.182;8.624;2023-03-19T15:43:29;17.10;99.90
51011;DHT22;37038;50.182;8.624;2023-03-19T15:46:22;18.00;99.90
51011;DHT22;37038;50.182;8.624;2023-03-19T15:49:24;17.90;99.90
51011;DHT22;37038;50.182;8.624;2023-03-19T15:52:39;17.30;99.90
51011;DHT22;37038;50.182;8.624;2023-03-19T15:55:29;17.60;99.90
51011;DHT22;37038;50.182;8.624;2023-03-19T15:58:26;16.80;99.90
51011;DHT22;37038;50.182;8.624;2023-03-19T16:01:16;17.30;99.90
51011;DHT22;37038;50.182;8.624;2023-03-19T16:04:07;16.00;99.90
51011;DHT22;37038;50.182;8.624;2023-03-19T16:07:02;15.70;99.90
51011;DHT22;37038;50.182;8.624;2023-03-19T16:09:53;16.70;99.90
51011;DHT22;37038;50.182;8.624;2023-03-19T16:12:41;16.10;99.90
51011;DHT22;37038;50.182;8.624;2023-03-19T16:15:39;16.00;99.90
51011;DHT22;37038;50.182;8.624;2023-03-19T16:18:52;15.70;99.90
51011;DHT22;37038;50.182;8.624;2023-03-19T16:21:42;16.10;99.90
51011;DHT22;37038;50.182;8.624;2023-03-19T16:24:33;15.70;99.90
51011;DHT22;37038;50.182;8.624;2023-03-19T16:27:34;15.60;99.90
51011;DHT22;37038;50.182;8.624;2023-03-19T16:30:25;16.10;99.90
51011;DHT22;37038;50.182;8.624;2023-03-19T16:33:13;15.50;99.90
51011;DHT22;37038;50.182;8.624;2023-03-19T16:36:02;15.30;99.90
51011;DHT22;37038;50.182;8.624;2023-03-19T16:39:13;15.50;99.90
51011;DHT22;37038;50.182;8.624;2023-03-19T16:45:31;15.30;99.90
51011;DHT22;37038;50.182;8.624;2023-03-19T16:48:19;15.30;99.90
51011;DHT22;37038;50.182;8.624;2023-03-19T16:51:12;15.30;99.90
51011;DHT22;37038;50.182;8.624;2023-03-19T16:54:05;15.20;99.90
51011;DHT22;37038;50.182;8.624;2023-03-19T16:56:53;14.80;99.90
51011;DHT22;37038;50.182;8.624;2023-03-19T16:59:43;14.20;99.90
51011;DHT22;37038;50.182;8.624;2023-03-19T17:02:32;13.70;99.90
51011;DHT22;37038;50.182;8.624;2023-03-19T17:05:20;13.60;99.90
51011;DHT22;37038;50.182;8.624;2023-03-19T17:08:08;13.60;99.90
51011;DHT22;37038;50.182;8.624;2023-03-19T17:10:58;13.40;99.90
51011;DHT22;37038;50.182;8.624;2023-03-19T17:13:46;13.30;99.90
51011;DHT22;37038;50.182;8.624;2023-03-19T17:16:34;13.20;99.90
51011;DHT22;37038;50.182;8.624;2023-03-19T17:19:25;13.10;99.90
51011;DHT22;37038;50.182;8.624;2023-03-19T17:22:15;13.10;99.90
51011;DHT22;37038;50.182;8.624;2023-03-19T17:25:09;13.00;99.90
51011;DHT22;37038;50.182;8.624;2023-03-19T17:27:58;12.90;99.90
51011;DHT22;37038;50.182;8.624;2023-03-19T17:30:46;12.80;99.90
51011;DHT22;37038;50.182;8.624;2023-03-19T17:33:34;12.90;99.90
51011;DHT22;37038;50.182;8.624;2023-03-19T17:36:23;12.90;99.90
51011;DHT22;37038;50.182;8.624;2023-03-19T17:39:11;12.70;99.90
51011;DHT22;37038;50.182;8.624;2023-03-19T17:41:59;12.70;99.90
51011;DHT22;37038;50.182;8.624;2023-03-19T17:44:49;12.60;99.90
51011;DHT22;37038;50.182;8.624;2023-03-19T17:47:37;12.50;99.90
51011;DHT22;37038;50.182;8.624;2023-03-19T17:50:28;12.30;99.90
51011;DHT22;37038;50.182;8.624;2023-03-19T17:53:18;12.20;99.90
51011;DHT22;37038;50.182;8.624;2023-03-19T17:56:10;12.20;99.90
51011;DHT22;37038;50.182;8.624;2023-03-19T17:59:01;12.20;99.90
51011;DHT22;37038;50.182;8.624;2023-03-19T18:01:50;12.20;99.90
51011;DHT22;37038;50.182;8.624;2023-03-19T18:04:38;12.10;99.90
51011;DHT22;37038;50.182;8.624;2023-03-19T18:07:27;12.10;99.90
51011;DHT22;37038;50.182;8.624;2023-03-19T18:10:20;12.10;99.90
51011;DHT22;37038;50.182;8.624;2023-03-19T18:13:10;12.10;99.90
51011;DHT22;37038;50.182;8.624;2023-03-19T18:15:58;12.10;99.90
51011;DHT22;37038;50.182;8.624;2023-03-19T18:18:47;12.10;99.90
51011;DHT22;37038;50.182;8.624;2023-03-19T18:21:37;12.10;99.90
51011;DHT22;37038;50.182;8.624;2023-03-19T18:24:25;12.30;99.90
51011;DHT22;37038;50.182;8.624;2023-03-19T18:27:13;12.20;99.90
51011;DHT22;37038;50.182;8.624;2023-03-19T18:30:01;12.10;99.90
51011;DHT22;37038;50.182;8.624;2023-03-19T18:32:56;12.10;99.90
51011;DHT22;37038;50.182;8.624;2023-03-19T18:35:46;12.10;99.90
51011;DHT22;37038;50.182;8.624;2023-03-19T18:38:34;12.00;99.90
51011;DHT22;37038;50.182;8.624;2023-03-19T18:41:27;11.90;99.90
51011;DHT22;37038;50.182;8.624;2023-03-19T18:44:17;11.80;99.90
51011;DHT22;37038;50.182;8.624;2023-03-19T18:47:13;11.80;99.90
51011;DHT22;37038;50.182;8.624;2023-03-19T18:50:07;11.70;99.90
51011;DHT22;37038;50.182;8.624;2023-03-19T18:53:03;11.70;99.90
51011;DHT22;37038;50.182;8.624;2023-03-19T18:55:51;11.70;99.90
51011;DHT22;37038;50.182;8.624;2023-03-19T18:58:39;11.60;99.90
51011;DHT22;37038;50.182;8.624;2023-03-19T19:01:27;11.50;99.90
51011;DHT22;37038;50.182;8.624;2023-03-19T19:04:15;11.40;99.90
51011;DHT22;37038;50.182;8.624;2023-03-19T19:07:04;11.40;99.90
51011;DHT22;37038;50.182;8.624;2023-03-19T19:09:52;11.50;99.90
51011;DHT22;37038;50.182;8.624;2023-03-19T19:12:41;11.40;99.90
51011;DHT22;37038;50.182;8.624;2023-03-19T19:15:34;11.30;99.90
51011;DHT22;37038;50.182;8.624;2023-03-19T19:18:25;11.30;99.90
51011;DHT22;37038;50.182;8.624;2023-03-19T19:21:16;11.40;99.90
51011;DHT22;37038;50.182;8.624;2023-03-19T19:24:04;11.50;99.90
51011;DHT22;37038;50.182;8.624;2023-03-19T19:26:52;11.60;99.90
51011;DHT22;37038;50.182;8.624;2023-03-19T19:29:41;11.40;99.90
51011;DHT22;37038;50.182;8.624;2023-03-19T19:32:29;11.10;99.90
51011;DHT22;37038;50.182;8.624;2023-03-19T19:35:20;11.00;99.90
51011;DHT22;37038;50.182;8.624;2023-03-19T19:38:13;11.10;99.90
51011;DHT22;37038;50.182;8.624;2023-03-19T19:41:02;11.10;99.90